Country
Station

 

Weather  for  Mont Joli, Que.  -  Canada    Canada

  
-18 °C (-0 °F)
    
 
 

Current METAR for Mont Joli, Que. is :

CYYY 191400Z 28013G18KT 30SM SCT024 M18/M23 A3027 RMK SC4 SLP259

 

This is a report for Mont Joli, Que. - Canada.
 
The report was made 10 minutes ago, at 14:00 UTC .
The wind was blowing at a speed of 6.7 meters per second (15.0 miles per hour) with gusts up to 9.3 meters per second (20.7 miles per hour) from west (280°).
 
The temperature was -18 °C (-0 °F), with a dew-point at -23 °C (-9 °F).
The atmospheric pressure was 1025 hPa (30.27 inHg).
The relative humidity was 64.7%.
 
There were scattered clouds at a height of 732 meters (2400 feet).
 
The overall visibility was 48.3 kilometers (30.0 miles).
 

 
 
 
 

Country :   A   B   C   D   E   F   G   H   I   J   K   L   M   N   O   P   Q   R   S   T   U   V   W   Y   Z

 

Site Info  |  Disclaimer  |  Credits  |  Privacy
Contact us  |  Add to favorites
© 2013-2019 METARs - All rights reserved